sensor_id;sensor_type;location;lat;lon;timestamp;pressure;altitude;pressure_sealevel;temperature;humidity
10638;BME280;47007;49.252;8.904;2023-03-04T00:00:38;100458.38;;;-0.24;100.00
10638;BME280;47007;49.252;8.904;2023-03-04T00:01:26;100447.91;;;-0.37;100.00
10638;BME280;47007;49.252;8.904;2023-03-04T00:02:08;100458.88;;;-0.31;100.00
10638;BME280;47007;49.252;8.904;2023-03-04T00:02:50;100465.75;;;-0.30;100.00
10638;BME280;47007;49.252;8.904;2023-03-04T00:03:31;100460.66;;;-0.32;100.00
10638;BME280;47007;49.252;8.904;2023-03-04T00:04:13;100464.63;;;-0.26;100.00
10638;BME280;47007;49.252;8.904;2023-03-04T00:04:55;100478.28;;;-0.23;100.00
10638;BME280;47007;49.252;8.904;2023-03-04T00:05:36;100456.47;;;-0.34;100.00
10638;BME280;47007;49.252;8.904;2023-03-04T00:06:18;100465.16;;;-0.21;100.00
10638;BME280;47007;49.252;8.904;2023-03-04T00:07:00;100447.44;;;-0.29;100.00
10638;BME280;47007;49.252;8.904;2023-03-04T00:07:41;100457.84;;;-0.29;100.00
10638;BME280;47007;49.252;8.904;2023-03-04T00:08:23;100480.78;;;-0.21;100.00
10638;BME280;47007;49.252;8.904;2023-03-04T00:09:05;100468.69;;;-0.22;100.00
10638;BME280;47007;49.252;8.904;2023-03-04T00:09:47;100473.16;;;-0.24;100.00
10638;BME280;47007;49.252;8.904;2023-03-04T00:10:28;100469.63;;;-0.23;100.00
10638;BME280;47007;49.252;8.904;2023-03-04T00:11:10;100435.09;;;-0.40;100.00
10638;BME280;47007;49.252;8.904;2023-03-04T00:11:52;100414.31;;;-0.54;100.00
10638;BME280;47007;49.252;8.904;2023-03-04T00:12:33;100475.91;;;-0.26;100.00
10638;BME280;47007;49.252;8.904;2023-03-04T00:13:15;100471.41;;;-0.24;100.00
10638;BME280;47007;49.252;8.904;2023-03-04T00:13:57;100372.09;;;-0.86;100.00
10638;BME280;47007;49.252;8.904;2023-03-04T00:14:40;100449.44;;;-0.47;100.00
10638;BME280;47007;49.252;8.904;2023-03-04T00:15:21;100451.28;;;-0.49;100.00
10638;BME280;47007;49.252;8.904;2023-03-04T00:16:03;100474.25;;;-0.41;100.00
10638;BME280;47007;49.252;8.904;2023-03-04T00:16:45;100401.47;;;-0.84;100.00
10638;BME280;47007;49.252;8.904;2023-03-04T00:17:27;100417.47;;;-0.76;100.00
10638;BME280;47007;49.252;8.904;2023-03-04T00:18:10;100470.72;;;-0.40;100.00
10638;BME280;47007;49.252;8.904;2023-03-04T00:18:53;100472.09;;;-0.34;100.00
10638;BME280;47007;49.252;8.904;2023-03-04T00:19:34;100402.47;;;-0.72;100.00
10638;BME280;47007;49.252;8.904;2023-03-04T00:20:16;100461.66;;;-0.34;100.00
10638;BME280;47007;49.252;8.904;2023-03-04T00:20:58;100450.72;;;-0.40;100.00
10638;BME280;47007;49.252;8.904;2023-03-04T00:21:39;100469.09;;;-0.28;100.00
10638;BME280;47007;49.252;8.904;2023-03-04T00:22:21;100468.19;;;-0.27;100.00
10638;BME280;47007;49.252;8.904;2023-03-04T00:23:03;100445.91;;;-0.46;100.00
10638;BME280;47007;49.252;8.904;2023-03-04T00:23:44;100449.06;;;-0.41;100.00
10638;BME280;47007;49.252;8.904;2023-03-04T00:24:26;100459.06;;;-0.34;100.00
10638;BME280;47007;49.252;8.904;2023-03-04T00:25:08;100430.69;;;-0.52;100.00
10638;BME280;47007;49.252;8.904;2023-03-04T00:25:50;100479.53;;;-0.28;100.00
10638;BME280;47007;49.252;8.904;2023-03-04T00:26:31;100425.84;;;-0.58;100.00
10638;BME280;47007;49.252;8.904;2023-03-04T00:27:13;100460.94;;;-0.37;100.00
10638;BME280;47007;49.252;8.904;2023-03-04T00:27:55;100472.66;;;-0.29;100.00
10638;BME280;47007;49.252;8.904;2023-03-04T00:28:39;100469.81;;;-0.39;100.00
10638;BME280;47007;49.252;8.904;2023-03-04T00:29:20;100482.22;;;-0.30;100.00
10638;BME280;47007;49.252;8.904;2023-03-04T00:30:04;100474.31;;;-0.28;100.00
10638;BME280;47007;49.252;8.904;2023-03-04T00:30:46;100417.28;;;-0.60;100.00
10638;BME280;47007;49.252;8.904;2023-03-04T00:31:28;100483.81;;;-0.27;100.00
10638;BME280;47007;49.252;8.904;2023-03-04T00:32:10;100473.38;;;-0.27;100.00
10638;BME280;47007;49.252;8.904;2023-03-04T00:32:51;100399.13;;;-0.74;100.00
10638;BME280;47007;49.252;8.904;2023-03-04T00:33:33;100477.09;;;-0.31;100.00
10638;BME280;47007;49.252;8.904;2023-03-04T00:34:15;100401.72;;;-0.74;100.00
10638;BME280;47007;49.252;8.904;2023-03-04T00:34:57;100469.28;;;-0.31;100.00
10638;BME280;47007;49.252;8.904;2023-03-04T00:35:39;100473.75;;;-0.33;100.00
10638;BME280;47007;49.252;8.904;2023-03-04T00:36:20;100478.13;;;-0.34;100.00
10638;BME280;47007;49.252;8.904;2023-03-04T00:37:02;100476.56;;;-0.37;100.00
10638;BME280;47007;49.252;8.904;2023-03-04T00:37:44;100404.81;;;-0.82;100.00
10638;BME280;47007;49.252;8.904;2023-03-04T00:38:26;100475.84;;;-0.39;100.00
10638;BME280;47007;49.252;8.904;2023-03-04T00:39:07;100475.00;;;-0.39;100.00
10638;BME280;47007;49.252;8.904;2023-03-04T00:39:49;100478.53;;;-0.40;100.00
10638;BME280;47007;49.252;8.904;2023-03-04T00:40:31;100447.50;;;-0.57;100.00
10638;BME280;47007;49.252;8.904;2023-03-04T00:41:13;100443.16;;;-0.57;100.00
10638;BME280;47007;49.252;8.904;2023-03-04T00:41:55;100474.25;;;-0.41;100.00
10638;BME280;47007;49.252;8.904;2023-03-04T00:42:37;100459.94;;;-0.48;100.00
10638;BME280;47007;49.252;8.904;2023-03-04T00:43:18;100467.66;;;-0.47;100.00
10638;BME280;47007;49.252;8.904;2023-03-04T00:44:00;100417.00;;;-0.82;100.00
10638;BME280;47007;49.252;8.904;2023-03-04T00:44:42;100448.94;;;-0.66;100.00
10638;BME280;47007;49.252;8.904;2023-03-04T00:45:23;100484.13;;;-0.46;100.00
10638;BME280;47007;49.252;8.904;2023-03-04T00:46:05;100453.56;;;-0.57;100.00
10638;BME280;47007;49.252;8.904;2023-03-04T00:46:47;100472.44;;;-0.53;100.00
10638;BME280;47007;49.252;8.904;2023-03-04T00:47:29;100480.06;;;-0.50;100.00
10638;BME280;47007;49.252;8.904;2023-03-04T00:48:11;100481.09;;;-0.53;100.00
10638;BME280;47007;49.252;8.904;2023-03-04T00:48:53;100445.97;;;-0.74;100.00
10638;BME280;47007;49.252;8.904;2023-03-04T00:49:34;100447.53;;;-0.72;100.00
10638;BME280;47007;49.252;8.904;2023-03-04T00:50:18;100483.13;;;-0.58;100.00
10638;BME280;47007;49.252;8.904;2023-03-04T00:51:00;100473.72;;;-0.60;100.00
10638;BME280;47007;49.252;8.904;2023-03-04T00:51:42;100470.28;;;-0.61;100.00
10638;BME280;47007;49.252;8.904;2023-03-04T00:52:23;100467.63;;;-0.74;100.00
10638;BME280;47007;49.252;8.904;2023-03-04T00:53:05;100463.47;;;-0.90;100.00
10638;BME280;47007;49.252;8.904;2023-03-04T00:53:47;100491.69;;;-0.70;100.00
10638;BME280;47007;49.252;8.904;2023-03-04T00:54:29;100440.25;;;-0.93;100.00
10638;BME280;47007;49.252;8.904;2023-03-04T00:55:10;100448.81;;;-0.91;100.00
10638;BME280;47007;49.252;8.904;2023-03-04T00:55:52;100445.63;;;-0.96;100.00
10638;BME280;47007;49.252;8.904;2023-03-04T00:56:34;100451.22;;;-0.88;100.00
10638;BME280;47007;49.252;8.904;2023-03-04T00:57:15;100499.69;;;-0.73;100.00
10638;BME280;47007;49.252;8.904;2023-03-04T00:57:57;100426.22;;;-1.05;100.00
10638;BME280;47007;49.252;8.904;2023-03-04T00:58:38;100478.69;;;-0.70;100.00
10638;BME280;47007;49.252;8.904;2023-03-04T00:59:20;100461.41;;;-0.85;100.00
10638;BME280;47007;49.252;8.904;2023-03-04T01:00:03;100468.69;;;-0.76;100.00
10638;BME280;47007;49.252;8.904;2023-03-04T01:00:45;100462.16;;;-0.83;100.00
10638;BME280;47007;49.252;8.904;2023-03-04T01:01:27;100475.44;;;-0.74;100.00
10638;BME280;47007;49.252;8.904;2023-03-04T01:02:09;100492.47;;;-0.82;100.00
10638;BME280;47007;49.252;8.904;2023-03-04T01:02:51;100484.22;;;-0.89;100.00
10638;BME280;47007;49.252;8.904;2023-03-04T01:03:32;100483.28;;;-0.88;100.00
10638;BME280;47007;49.252;8.904;2023-03-04T01:04:15;100461.16;;;-1.09;100.00
10638;BME280;47007;49.252;8.904;2023-03-04T01:04:56;100461.72;;;-1.04;100.00
10638;BME280;47007;49.252;8.904;2023-03-04T01:05:38;100468.88;;;-1.08;100.00
10638;BME280;47007;49.252;8.904;2023-03-04T01:06:20;100483.19;;;-1.00;100.00
10638;BME280;47007;49.252;8.904;2023-03-04T01:07:02;100485.13;;;-1.04;100.00
10638;BME280;47007;49.252;8.904;2023-03-04T01:07:44;100470.75;;;-1.24;100.00
10638;BME280;47007;49.252;8.904;2023-03-04T01:08:25;100492.47;;;-1.11;100.00
10638;BME280;47007;49.252;8.904;2023-03-04T01:09:07;100461.06;;;-1.22;100.00
10638;BME280;47007;49.252;8.904;2023-03-04T01:09:49;100456.44;;;-1.17;100.00
10638;BME280;47007;49.252;8.904;2023-03-04T01:10:32;100479.00;;;-1.03;100.00
10638;BME280;47007;49.252;8.904;2023-03-04T01:11:13;100477.81;;;-1.12;100.00
10638;BME280;47007;49.252;8.904;2023-03-04T01:11:56;100478.91;;;-1.01;100.00
10638;BME280;47007;49.252;8.904;2023-03-04T01:12:37;100474.56;;;-1.01;100.00
10638;BME280;47007;49.252;8.904;2023-03-04T01:13:20;100488.41;;;-1.00;100.00
10638;BME280;47007;49.252;8.904;2023-03-04T01:14:02;100477.34;;;-1.04;100.00
10638;BME280;47007;49.252;8.904;2023-03-04T01:14:45;100474.34;;;-0.98;100.00
10638;BME280;47007;49.252;8.904;2023-03-04T01:15:27;100477.69;;;-0.96;100.00
10638;BME280;47007;49.252;8.904;2023-03-04T01:16:09;100448.44;;;-1.14;100.00
10638;BME280;47007;49.252;8.904;2023-03-04T01:16:51;100450.97;;;-1.12;100.00
10638;BME280;47007;49.252;8.904;2023-03-04T01:17:33;100486.25;;;-0.94;100.00
10638;BME280;47007;49.252;8.904;2023-03-04T01:18:14;100466.66;;;-0.99;100.00
10638;BME280;47007;49.252;8.904;2023-03-04T01:18:56;100467.47;;;-0.99;100.00
10638;BME280;47007;49.252;8.904;2023-03-04T01:19:38;100476.50;;;-0.90;100.00
10638;BME280;47007;49.252;8.904;2023-03-04T01:20:20;100469.78;;;-0.94;100.00
10638;BME280;47007;49.252;8.904;2023-03-04T01:21:01;100459.78;;;-1.00;100.00
10638;BME280;47007;49.252;8.904;2023-03-04T01:21:43;100472.13;;;-0.90;100.00
10638;BME280;47007;49.252;8.904;2023-03-04T01:22:25;100465.53;;;-0.95;100.00
10638;BME280;47007;49.252;8.904;2023-03-04T01:23:07;100481.69;;;-0.90;100.00
10638;BME280;47007;49.252;8.904;2023-03-04T01:23:49;100447.41;;;-1.11;100.00
10638;BME280;47007;49.252;8.904;2023-03-04T01:24:30;100449.00;;;-1.09;100.00
10638;BME280;47007;49.252;8.904;2023-03-04T01:25:12;100468.69;;;-0.90;100.00
10638;BME280;47007;49.252;8.904;2023-03-04T01:25:54;100466.44;;;-0.96;100.00
10638;BME280;47007;49.252;8.904;2023-03-04T01:26:36;100481.69;;;-0.90;100.00
10638;BME280;47007;49.252;8.904;2023-03-04T01:27:17;100478.34;;;-0.92;100.00
10638;BME280;47007;49.252;8.904;2023-03-04T01:27:59;100469.06;;;-0.96;100.00
10638;BME280;47007;49.252;8.904;2023-03-04T01:28:41;100426.41;;;-1.22;100.00
10638;BME280;47007;49.252;8.904;2023-03-04T01:29:22;100467.09;;;-0.93;100.00
10638;BME280;47007;49.252;8.904;2023-03-04T01:30:04;100459.13;;;-1.04;100.00
10638;BME280;47007;49.252;8.904;2023-03-04T01:30:46;100466.66;;;-0.99;100.00
10638;BME280;47007;49.252;8.904;2023-03-04T01:31:28;100469.78;;;-0.94;100.00
10638;BME280;47007;49.252;8.904;2023-03-04T01:32:10;100477.59;;;-0.94;100.00
10638;BME280;47007;49.252;8.904;2023-03-04T01:32:52;100478.53;;;-0.95;100.00
10638;BME280;47007;49.252;8.904;2023-03-04T01:33:33;100483.81;;;-0.97;100.00
10638;BME280;47007;49.252;8.904;2023-03-04T01:34:16;100447.41;;;-1.11;100.00
10638;BME280;47007;49.252;8.904;2023-03-04T01:34:58;100476.09;;;-0.98;100.00
10638;BME280;47007;49.252;8.904;2023-03-04T01:35:40;100429.31;;;-1.27;100.00
10638;BME280;47007;49.252;8.904;2023-03-04T01:36:22;100471.94;;;-1.01;100.00
10638;BME280;47007;49.252;8.904;2023-03-04T01:37:04;100476.31;;;-1.01;100.00
10638;BME280;47007;49.252;8.904;2023-03-04T01:37:45;100488.50;;;-1.02;100.00
10638;BME280;47007;49.252;8.904;2023-03-04T01:38:27;100475.38;;;-1.00;100.00
10638;BME280;47007;49.252;8.904;2023-03-04T01:39:09;100454.28;;;-1.10;100.00
10638;BME280;47007;49.252;8.904;2023-03-04T01:39:50;100467.69;;;-1.02;100.00
10638;BME280;47007;49.252;8.904;2023-03-04T01:40:32;100477.06;;;-0.99;100.00
10638;BME280;47007;49.252;8.904;2023-03-04T01:41:16;100469.13;;;-0.98;100.00
10638;BME280;47007;49.252;8.904;2023-03-04T01:41:59;100475.19;;;-0.97;100.00
10638;BME280;47007;49.252;8.904;2023-03-04T01:42:41;100459.66;;;-0.99;100.00
10638;BME280;47007;49.252;8.904;2023-03-04T01:43:26;100450.22;;;-1.00;100.00
10638;BME280;47007;49.252;8.904;2023-03-04T01:44:08;100458.72;;;-0.98;100.00
10638;BME280;47007;49.252;8.904;2023-03-04T01:44:51;100464.78;;;-0.97;100.00
10638;BME280;47007;49.252;8.904;2023-03-04T01:45:34;100432.38;;;-1.20;100.00
10638;BME280;47007;49.252;8.904;2023-03-04T01:46:16;100451.06;;;-1.14;100.00
10638;BME280;47007;49.252;8.904;2023-03-04T01:46:58;100450.66;;;-1.22;100.00
10638;BME280;47007;49.252;8.904;2023-03-04T01:47:40;100470.19;;;-1.15;100.00
10638;BME280;47007;49.252;8.904;2023-03-04T01:48:34;100432.75;;;-1.40;100.00
10638;BME280;47007;49.252;8.904;2023-03-04T01:49:18;100452.16;;;-1.32;100.00
10638;BME280;47007;49.252;8.904;2023-03-04T01:50:02;100458.84;;;-1.28;100.00
10638;BME280;47007;49.252;8.904;2023-03-04T01:50:45;100467.56;;;-1.29;100.00
10638;BME280;47007;49.252;8.904;2023-03-04T01:51:26;100461.53;;;-1.29;100.00
10638;BME280;47007;49.252;8.904;2023-03-04T01:52:12;100407.28;;;-1.64;100.00
10638;BME280;47007;49.252;8.904;2023-03-04T01:52:54;100457.53;;;-1.35;100.00
10638;BME280;47007;49.252;8.904;2023-03-04T01:53:36;100465.81;;;-1.28;100.00
10638;BME280;47007;49.252;8.904;2023-03-04T01:54:18;100463.88;;;-1.25;100.00
10638;BME280;47007;49.252;8.904;2023-03-04T01:55:01;100442.03;;;-1.36;100.00
10638;BME280;47007;49.252;8.904;2023-03-04T01:55:43;100445.09;;;-1.30;100.00
10638;BME280;47007;49.252;8.904;2023-03-04T01:56:29;100452.53;;;-1.24;100.00
10638;BME280;47007;49.252;8.904;2023-03-04T01:57:22;100400.97;;;-1.60;100.00
10638;BME280;47007;49.252;8.904;2023-03-04T01:58:04;100451.13;;;-1.29;100.00
10638;BME280;47007;49.252;8.904;2023-03-04T01:59:06;100446.03;;;-1.31;100.00
10638;BME280;47007;49.252;8.904;2023-03-04T02:00:16;100449.81;;;-1.22;100.00
10638;BME280;47007;49.252;8.904;2023-03-04T02:00:59;100447.78;;;-1.17;100.00
10638;BME280;47007;49.252;8.904;2023-03-04T02:01:44;100441.75;;;-1.18;100.00
10638;BME280;47007;49.252;8.904;2023-03-04T02:02:26;100441.94;;;-1.21;100.00
10638;BME280;47007;49.252;8.904;2023-03-04T02:03:12;100454.75;;;-1.18;100.00
10638;BME280;47007;49.252;8.904;2023-03-04T02:03:55;100456.53;;;-1.18;100.00
10638;BME280;47007;49.252;8.904;2023-03-04T02:04:38;100456.53;;;-1.18;100.00
10638;BME280;47007;49.252;8.904;2023-03-04T02:05:20;100450.47;;;-1.19;100.00
10638;BME280;47007;49.252;8.904;2023-03-04T02:06:04;100425.03;;;-1.28;100.00
10638;BME280;47007;49.252;8.904;2023-03-04T02:06:46;100459.22;;;-1.20;100.00
10638;BME280;47007;49.252;8.904;2023-03-04T02:07:29;100428.00;;;-1.34;100.00
10638;BME280;47007;49.252;8.904;2023-03-04T02:08:12;100413.06;;;-1.45;100.00
10638;BME280;47007;49.252;8.904;2023-03-04T02:08:55;100449.81;;;-1.22;100.00
10638;BME280;47007;49.252;8.904;2023-03-04T02:09:37;100468.03;;;-1.22;100.00
10638;BME280;47007;49.252;8.904;2023-03-04T02:10:19;100455.25;;;-1.25;100.00
10638;BME280;47007;49.252;8.904;2023-03-04T02:11:01;100438.97;;;-1.29;100.00
10638;BME280;47007;49.252;8.904;2023-03-04T02:11:44;100438.69;;;-1.38;100.00
10638;BME280;47007;49.252;8.904;2023-03-04T02:12:26;100436.94;;;-1.38;100.00
10638;BME280;47007;49.252;8.904;2023-03-04T02:13:08;100445.28;;;-1.33;100.00
10638;BME280;47007;49.252;8.904;2023-03-04T02:13:51;100354.28;;;-1.90;100.00
10638;BME280;47007;49.252;8.904;2023-03-04T02:14:34;100430.91;;;-1.38;100.00
10638;BME280;47007;49.252;8.904;2023-03-04T02:15:16;100437.66;;;-1.36;100.00
10638;BME280;47007;49.252;8.904;2023-03-04T02:15:58;100392.06;;;-1.70;100.00
10638;BME280;47007;49.252;8.904;2023-03-04T02:16:41;100438.69;;;-1.38;100.00
10638;BME280;47007;49.252;8.904;2023-03-04T02:17:24;100403.88;;;-1.64;100.00
10638;BME280;47007;49.252;8.904;2023-03-04T02:18:20;100442.31;;;-1.41;100.00
10638;BME280;47007;49.252;8.904;2023-03-04T02:19:06;100439.13;;;-1.46;100.00
10638;BME280;47007;49.252;8.904;2023-03-04T02:20:00;100421.03;;;-1.62;100.00
10638;BME280;47007;49.252;8.904;2023-03-04T02:21:13;100440.28;;;-1.50;100.00
10638;BME280;47007;49.252;8.904;2023-03-04T02:21:57;100440.28;;;-1.50;100.00
10638;BME280;47007;49.252;8.904;2023-03-04T02:22:46;100445.38;;;-1.49;100.00
10638;BME280;47007;49.252;8.904;2023-03-04T02:23:39;100457.34;;;-1.46;100.00
10638;BME280;47007;49.252;8.904;2023-03-04T02:24:28;100443.31;;;-1.43;100.00
10638;BME280;47007;49.252;8.904;2023-03-04T02:25:20;100452.72;;;-1.41;100.00
10638;BME280;47007;49.252;8.904;2023-03-04T02:26:50;100402.94;;;-1.63;100.00
10638;BME280;47007;49.252;8.904;2023-03-04T02:27:31;100368.56;;;-1.83;100.00
10638;BME280;47007;49.252;8.904;2023-03-04T02:28:13;100446.59;;;-1.40;100.00
10638;BME280;47007;49.252;8.904;2023-03-04T02:28:58;100443.06;;;-1.39;100.00
10638;BME280;47007;49.252;8.904;2023-03-04T02:29:40;100433.41;;;-1.51;100.00
10638;BME280;47007;49.252;8.904;2023-03-04T02:30:22;100437.19;;;-1.42;100.00
10638;BME280;47007;49.252;8.904;2023-03-04T02:31:05;100449.56;;;-1.32;100.00
10638;BME280;47007;49.252;8.904;2023-03-04T02:31:50;100430.50;;;-1.47;100.00
10638;BME280;47007;49.252;8.904;2023-03-04T02:32:32;100453.25;;;-1.36;100.00
10638;BME280;47007;49.252;8.904;2023-03-04T02:33:18;100453.25;;;-1.36;100.00
10638;BME280;47007;49.252;8.904;2023-03-04T02:34:02;100457.00;;;-1.40;100.00
10638;BME280;47007;49.252;8.904;2023-03-04T02:34:47;100420.66;;;-1.56;100.00
10638;BME280;47007;49.252;8.904;2023-03-04T02:35:29;100447.69;;;-1.44;100.00
10638;BME280;47007;49.252;8.904;2023-03-04T02:36:11;100377.66;;;-1.90;100.00
10638;BME280;47007;49.252;8.904;2023-03-04T02:36:54;100445.19;;;-1.46;100.00
10638;BME280;47007;49.252;8.904;2023-03-04T02:37:36;100430.78;;;-1.51;100.00
10638;BME280;47007;49.252;8.904;2023-03-04T02:38:18;100448.44;;;-1.42;100.00
10638;BME280;47007;49.252;8.904;2023-03-04T02:39:07;100449.53;;;-1.46;100.00
10638;BME280;47007;49.252;8.904;2023-03-04T02:39:52;100446.69;;;-1.41;100.00
10638;BME280;47007;49.252;8.904;2023-03-04T02:40:33;100443.97;;;-1.40;100.00
10638;BME280;47007;49.252;8.904;2023-03-04T02:41:19;100438.22;;;-1.45;100.00
10638;BME280;47007;49.252;8.904;2023-03-04T02:42:02;100444.81;;;-1.39;100.00
10638;BME280;47007;49.252;8.904;2023-03-04T02:42:46;100431.25;;;-1.45;100.00
10638;BME280;47007;49.252;8.904;2023-03-04T02:43:28;100442.41;;;-1.42;100.00
10638;BME280;47007;49.252;8.904;2023-03-04T02:44:30;100441.66;;;-1.45;100.00
10638;BME280;47007;49.252;8.904;2023-03-04T02:45:35;100448.69;;;-1.47;100.00
10638;BME280;47007;49.252;8.904;2023-03-04T02:46:20;100428.53;;;-1.57;100.00
10638;BME280;47007;49.252;8.904;2023-03-04T02:47:03;100446.47;;;-1.53;100.00
10638;BME280;47007;49.252;8.904;2023-03-04T02:47:46;100441.63;;;-1.59;100.00
10638;BME280;47007;49.252;8.904;2023-03-04T02:48:27;100440.50;;;-1.69;100.00
10638;BME280;47007;49.252;8.904;2023-03-04T02:49:09;100450.16;;;-1.71;100.00
10638;BME280;47007;49.252;8.904;2023-03-04T02:49:51;100421.91;;;-1.91;100.00
10638;BME280;47007;49.252;8.904;2023-03-04T02:50:41;100444.56;;;-1.79;100.00
10638;BME280;47007;49.252;8.904;2023-03-04T02:51:23;100438.25;;;-1.89;100.00
10638;BME280;47007;49.252;8.904;2023-03-04T02:52:09;100443.66;;;-1.78;100.00
10638;BME280;47007;49.252;8.904;2023-03-04T02:52:53;100434.34;;;-1.82;100.00
10638;BME280;47007;49.252;8.904;2023-03-04T02:53:34;100404.34;;;-2.02;100.00
10638;BME280;47007;49.252;8.904;2023-03-04T02:54:18;100416.97;;;-1.96;100.00
10638;BME280;47007;49.252;8.904;2023-03-04T02:55:00;100467.03;;;-1.78;100.00
10638;BME280;47007;49.252;8.904;2023-03-04T02:55:42;100445.41;;;-1.78;100.00
10638;BME280;47007;49.252;8.904;2023-03-04T02:56:25;100358.44;;;-2.31;100.00
10638;BME280;47007;49.252;8.904;2023-03-04T02:57:09;100446.25;;;-1.78;100.00
10638;BME280;47007;49.252;8.904;2023-03-04T02:57:54;100450.53;;;-1.77;100.00
10638;BME280;47007;49.252;8.904;2023-03-04T02:58:36;100450.63;;;-1.78;100.00
10638;BME280;47007;49.252;8.904;2023-03-04T02:59:20;100450.44;;;-1.75;100.00
10638;BME280;47007;49.252;8.904;2023-03-04T03:00:03;100447.84;;;-1.75;100.00
10638;BME280;47007;49.252;8.904;2023-03-04T03:00:44;100446.91;;;-1.74;100.00
10638;BME280;47007;49.252;8.904;2023-03-04T03:01:28;100422.75;;;-1.91;100.00
10638;BME280;47007;49.252;8.904;2023-03-04T03:02:10;100424.44;;;-1.90;100.00
10638;BME280;47007;49.252;8.904;2023-03-04T03:02:52;100429.03;;;-1.95;100.00
10638;BME280;47007;49.252;8.904;2023-03-04T03:03:34;100448.59;;;-1.73;100.00
10638;BME280;47007;49.252;8.904;2023-03-04T03:04:17;100414.56;;;-1.99;100.00
10638;BME280;47007;49.252;8.904;2023-03-04T03:05:00;100452.28;;;-1.77;100.00
10638;BME280;47007;49.252;8.904;2023-03-04T03:05:42;100448.94;;;-1.79;100.00
10638;BME280;47007;49.252;8.904;2023-03-04T03:06:24;100447.25;;;-1.81;100.00
10638;BME280;47007;49.252;8.904;2023-03-04T03:07:06;100412.31;;;-2.05;100.00
10638;BME280;47007;49.252;8.904;2023-03-04T03:07:47;100438.06;;;-1.86;100.00
10638;BME280;47007;49.252;8.904;2023-03-04T03:08:29;100445.97;;;-1.88;100.00
10638;BME280;47007;49.252;8.904;2023-03-04T03:09:11;100426.59;;;-1.98;100.00
10638;BME280;47007;49.252;8.904;2023-03-04T03:09:53;100445.66;;;-1.83;100.00
10638;BME280;47007;49.252;8.904;2023-03-04T03:10:35;100443.16;;;-1.85;100.00
10638;BME280;47007;49.252;8.904;2023-03-04T03:11:17;100452.53;;;-1.82;100.00
10638;BME280;47007;49.252;8.904;2023-03-04T03:11:59;100441.22;;;-1.81;100.00
10638;BME280;47007;49.252;8.904;2023-03-04T03:12:42;100424.59;;;-1.93;100.00
10638;BME280;47007;49.252;8.904;2023-03-04T03:13:24;100442.72;;;-1.77;100.00
10638;BME280;47007;49.252;8.904;2023-03-04T03:14:06;100431.50;;;-1.77;100.00
10638;BME280;47007;49.252;8.904;2023-03-04T03:14:48;100443.41;;;-1.73;100.00
10638;BME280;47007;49.252;8.904;2023-03-04T03:15:32;100418.13;;;-1.86;100.00
10638;BME280;47007;49.252;8.904;2023-03-04T03:16:14;100441.59;;;-1.73;100.00
10638;BME280;47007;49.252;8.904;2023-03-04T03:16:56;100424.13;;;-1.85;100.00
10638;BME280;47007;49.252;8.904;2023-03-04T03:17:38;100411.34;;;-1.88;100.00
10638;BME280;47007;49.252;8.904;2023-03-04T03:18:20;100453.78;;;-1.73;100.00
10638;BME280;47007;49.252;8.904;2023-03-04T03:19:02;100406.41;;;-1.93;100.00
10638;BME280;47007;49.252;8.904;2023-03-04T03:19:44;100432.25;;;-1.75;100.00
10638;BME280;47007;49.252;8.904;2023-03-04T03:20:26;100431.66;;;-1.81;100.00
10638;BME280;47007;49.252;8.904;2023-03-04T03:21:07;100426.09;;;-1.89;100.00
10638;BME280;47007;49.252;8.904;2023-03-04T03:21:49;100447.09;;;-1.77;100.00
10638;BME280;47007;49.252;8.904;2023-03-04T03:22:31;100443.56;;;-1.76;100.00
10638;BME280;47007;49.252;8.904;2023-03-04T03:23:12;100442.72;;;-1.77;100.00
10638;BME280;47007;49.252;8.904;2023-03-04T03:23:54;100450.63;;;-1.78;100.00
10638;BME280;47007;49.252;8.904;2023-03-04T03:24:35;100437.72;;;-1.80;100.00
10638;BME280;47007;49.252;8.904;2023-03-04T03:25:17;100439.56;;;-1.82;100.00
10638;BME280;47007;49.252;8.904;2023-03-04T03:26:00;100440.47;;;-1.83;100.00
10638;BME280;47007;49.252;8.904;2023-03-04T03:26:42;100443.28;;;-1.86;100.00
10638;BME280;47007;49.252;8.904;2023-03-04T03:27:23;100423.66;;;-1.92;100.00
10638;BME280;47007;49.252;8.904;2023-03-04T03:28:05;100433.13;;;-1.91;100.00
10638;BME280;47007;49.252;8.904;2023-03-04T03:28:47;100413.00;;;-2.01;100.00
10638;BME280;47007;49.252;8.904;2023-03-04T03:29:28;100418.66;;;-1.95;100.00
10638;BME280;47007;49.252;8.904;2023-03-04T03:30:12;100408.03;;;-2.06;100.00
10638;BME280;47007;49.252;8.904;2023-03-04T03:30:55;100438.16;;;-1.88;100.00
10638;BME280;47007;49.252;8.904;2023-03-04T03:31:36;100363.94;;;-2.36;100.00
10638;BME280;47007;49.252;8.904;2023-03-04T03:32:18;100439.44;;;-1.95;100.00
10638;BME280;47007;49.252;8.904;2023-03-04T03:33:04;100441.28;;;-1.97;100.00
10638;BME280;47007;49.252;8.904;2023-03-04T03:33:46;100437.28;;;-2.02;100.00
10638;BME280;47007;49.252;8.904;2023-03-04T03:34:27;100404.84;;;-2.25;100.00
10638;BME280;47007;49.252;8.904;2023-03-04T03:35:09;100444.69;;;-2.10;100.00
10638;BME280;47007;49.252;8.904;2023-03-04T03:35:51;100416.91;;;-2.24;100.00
10638;BME280;47007;49.252;8.904;2023-03-04T03:36:33;100344.22;;;-2.70;100.00
10638;BME280;47007;49.252;8.904;2023-03-04T03:37:14;100433.47;;;-2.11;100.00
10638;BME280;47007;49.252;8.904;2023-03-04T03:37:56;100439.28;;;-2.07;100.00
10638;BME280;47007;49.252;8.904;2023-03-04T03:38:38;100433.19;;;-2.06;100.00
10638;BME280;47007;49.252;8.904;2023-03-04T03:39:20;100433.09;;;-2.05;100.00
10638;BME280;47007;49.252;8.904;2023-03-04T03:40:02;100434.94;;;-2.07;100.00
10638;BME280;47007;49.252;8.904;2023-03-04T03:40:44;100409.28;;;-2.27;100.00
10638;BME280;47007;49.252;8.904;2023-03-04T03:41:25;100431.78;;;-2.12;100.00
10638;BME280;47007;49.252;8.904;2023-03-04T03:42:07;100376.84;;;-2.50;100.00
10638;BME280;47007;49.252;8.904;2023-03-04T03:42:49;100430.88;;;-2.11;100.00